Time;durP1;ratioP1;P1;durP2;ratioP2;P2;SDS_P1;SDS_P2;PMS_P1;PMS_P2;Temp;Humidity;BMP_temperature;BMP_pressure;BME280_temperature;BME280_humidity;BME280_pressure;Samples;Min_cycle;Max_cycle;Signal;HPM_P1;HPM_P2
2023/12/26 00:02:24;;;;;;;5.63;0.90;;;;;;;-145.69;45.04;52240.41;4915365;29;20212;-81
2023/12/26 00:04:51;;;;;;;1.80;1.17;;;;;;;-145.69;45.16;52256.25;4916189;29;20216;-80
2023/12/26 00:07:17;;;;;;;3.37;1.30;;;;;;;-145.69;45.10;52254.28;4915883;29;20587;-80
2023/12/26 00:09:44;;;;;;;3.17;1.07;;;;;;;-145.69;45.06;52248.34;4915863;29;20328;-81
2023/12/26 00:12:11;;;;;;;1.43;0.80;;;;;;;-145.69;44.99;52250.31;4915877;29;20208;-81
2023/12/26 00:14:38;;;;;;;4.10;1.23;;;;;;;-145.69;45.31;52258.22;4917729;29;20212;-81
2023/12/26 00:17:05;;;;;;;1.50;1.10;;;;;;;-145.69;45.79;52220.59;4919248;29;20283;-80
2023/12/26 00:19:33;;;;;;;4.63;1.00;;;;;;;-145.69;45.75;52264.16;4919461;29;20291;-81
2023/12/26 00:21:59;;;;;;;3.07;1.30;;;;;;;-145.69;45.75;52246.34;4919145;29;20204;-81
2023/12/26 00:24:25;;;;;;;1.90;0.80;;;;;;;-145.69;46.01;52254.28;4919187;29;20236;-81
2023/12/26 00:26:52;;;;;;;1.17;0.90;;;;;;;-145.69;46.03;52270.13;4919170;29;20593;-80
2023/12/26 00:29:19;;;;;;;7.63;2.80;;;;;;;-145.69;46.89;52260.22;4919255;29;20552;-81
2023/12/26 00:31:45;;;;;;;3.17;1.40;;;;;;;-145.69;46.96;52270.13;4917214;29;20655;-80
2023/12/26 00:34:12;;;;;;;4.50;1.77;;;;;;;-145.69;46.38;52266.16;4918413;29;20204;-81
2023/12/26 00:36:40;;;;;;;2.57;1.23;;;;;;;-145.69;46.67;52270.13;4919103;29;20245;-81
2023/12/26 00:39:07;;;;;;;2.47;1.30;;;;;;;-145.69;46.88;52210.72;4914939;29;20211;-81
2023/12/26 00:41:33;;;;;;;3.40;1.63;;;;;;;-145.69;47.13;52222.59;4918969;29;20208;-81
2023/12/26 00:44:00;;;;;;;3.07;1.10;;;;;;;-145.69;47.56;52254.28;4918129;29;20320;-80
2023/12/26 00:46:26;;;;;;;3.77;1.43;;;;;;;-145.69;47.71;52250.31;4918040;29;20212;-80
2023/12/26 00:48:53;;;;;;;2.77;1.43;;;;;;;-145.69;47.78;52283.97;4918727;29;20200;-81
2023/12/26 00:51:20;;;;;;;3.40;1.30;;;;;;;-145.69;47.98;52280.00;4918519;29;20200;-81
2023/12/26 00:53:48;;;;;;;4.97;1.30;;;;;;;-145.69;48.46;52274.06;4918862;29;20208;-81
2023/12/26 00:56:14;;;;;;;3.97;1.20;;;;;;;-145.69;48.06;52262.19;4915569;29;20192;-81
2023/12/26 00:58:41;;;;;;;2.20;1.00;;;;;;;-145.69;47.85;52299.81;4918782;29;20224;-81
2023/12/26 01:01:07;;;;;;;1.50;1.00;;;;;;;-145.69;47.99;52264.16;4918468;29;20388;-80
2023/12/26 01:03:34;;;;;;;1.23;1.10;;;;;;;-145.69;47.91;52252.28;4918134;29;20319;-81
2023/12/26 01:06:00;;;;;;;3.67;1.17;;;;;;;-145.69;48.27;52268.13;4918639;29;20251;-81
2023/12/26 01:08:27;;;;;;;3.03;1.20;;;;;;;-145.69;48.30;52262.19;4918277;29;20208;-81
2023/12/26 01:10:55;;;;;;;4.50;1.13;;;;;;;-145.69;48.76;52274.06;4918292;29;20327;-82
2023/12/26 01:13:21;;;;;;;1.87;1.30;;;;;;;-145.69;48.90;52289.91;4917814;29;20221;-81
2023/12/26 01:15:48;;;;;;;2.63;1.30;;;;;;;-145.69;49.20;52305.75;4916846;29;20256;-81
2023/12/26 01:18:15;;;;;;;1.30;1.20;;;;;;;-145.69;49.23;52289.91;4917698;29;20687;-81
2023/12/26 01:20:41;;;;;;;3.87;1.17;;;;;;;-145.69;49.18;52291.91;4917667;29;20680;-81
2023/12/26 01:23:08;;;;;;;5.20;1.40;;;;;;;-145.69;49.76;52248.34;4918135;29;20228;-80
2023/12/26 01:25:34;;;;;;;1.03;0.90;;;;;;;-145.69;49.76;52264.16;4917339;29;20212;-81
2023/12/26 01:28:02;;;;;;;1.33;1.10;;;;;;;-145.69;49.99;52270.13;4918105;29;20200;-81
2023/12/26 01:30:29;;;;;;;4.00;1.10;;;;;;;-145.69;50.43;52268.13;4918035;29;20223;-81
2023/12/26 01:32:55;;;;;;;1.43;1.00;;;;;;;-145.69;50.21;52272.09;4918116;29;20695;-81
2023/12/26 01:35:22;;;;;;;3.93;1.17;;;;;;;-145.69;50.20;52280.00;4918022;29;20208;-81
2023/12/26 01:37:49;;;;;;;8.20;1.07;;;;;;;-145.69;50.68;52274.06;4917801;29;20196;-81
2023/12/26 01:40:16;;;;;;;2.93;1.03;;;;;;;-145.69;50.77;52309.72;4917952;29;20200;-81
2023/12/26 01:42:45;;;;;;;4.97;1.00;;;;;;;-145.69;51.00;52272.09;4917458;29;20200;-81
2023/12/26 01:45:13;;;;;;;4.33;1.30;;;;;;;-145.69;51.39;52297.84;4916428;29;20276;-80
2023/12/26 01:47:40;;;;;;;2.53;1.00;;;;;;;-145.69;51.53;52274.06;4917866;29;20208;-81
2023/12/26 01:50:09;;;;;;;7.00;1.23;;;;;;;-145.69;51.27;52260.22;4917366;29;20560;-81
2023/12/26 01:52:38;;;;;;;1.77;1.23;;;;;;;-145.69;51.46;52289.91;4917085;29;20204;-81
2023/12/26 01:55:06;;;;;;;4.73;1.30;;;;;;;-145.69;51.50;52266.16;4917672;29;20208;-82
2023/12/26 01:57:35;;;;;;;1.73;1.23;;;;;;;-145.69;51.38;52278.03;4916595;29;20346;-81
2023/12/26 02:00:03;;;;;;;1.20;0.90;;;;;;;-145.69;50.94;52266.16;4917059;29;20207;-81
2023/12/26 02:02:33;;;;;;;2.43;1.10;;;;;;;-145.69;51.14;52262.19;4902247;29;20200;-81
2023/12/26 02:05:01;;;;;;;1.77;0.90;;;;;;;-145.69;51.05;52297.84;4917274;29;20235;-80
2023/12/26 02:07:27;;;;;;;3.83;1.17;;;;;;;-145.69;50.96;52285.97;4917163;29;20208;-81
2023/12/26 02:09:54;;;;;;;3.10;1.20;;;;;;;-145.69;51.00;52297.84;4916627;29;20232;-80
2023/12/26 02:12:21;;;;;;;4.30;1.50;;;;;;;-145.69;51.33;52252.28;4917245;29;20209;-80
2023/12/26 02:14:48;;;;;;;3.90;1.27;;;;;;;-145.69;51.37;52272.09;4917091;29;20295;-81
2023/12/26 02:17:21;;;;;;;5.53;1.07;;;;;;;-145.69;51.38;52282.00;4916742;29;20212;-79
2023/12/26 02:19:50;;;;;;;3.10;1.20;;;;;;;-145.69;52.36;52280.00;4916526;29;20215;-80
2023/12/26 02:22:16;;;;;;;2.77;1.27;;;;;;;-145.69;52.70;52285.97;4917051;29;20722;-80
2023/12/26 02:24:47;;;;;;;2.30;0.93;;;;;;;-145.69;53.09;52299.81;4917009;29;20287;-80
2023/12/26 02:27:18;;;;;;;3.23;1.13;;;;;;;-145.69;52.97;52297.84;4921436;29;20552;-80
2023/12/26 02:29:47;;;;;;;1.30;0.97;;;;;;;-145.69;53.58;52289.91;4915035;29;20208;-80
2023/12/26 02:32:17;;;;;;;4.77;1.00;;;;;;;-145.69;54.01;52305.75;4916917;29;20226;-80
2023/12/26 02:34:47;;;;;;;1.70;1.00;;;;;;;-145.69;53.47;52305.75;4917514;29;20255;-80
2023/12/26 02:37:14;;;;;;;3.53;1.10;;;;;;;-145.69;53.52;52250.31;4916915;29;20204;-80
2023/12/26 02:39:43;;;;;;;2.43;1.17;;;;;;;-145.69;53.20;52297.84;4916782;29;20211;-80
2023/12/26 02:42:11;;;;;;;3.20;1.30;;;;;;;-145.69;52.79;52297.84;4916852;29;20244;-80
2023/12/26 02:44:37;;;;;;;2.20;1.60;;;;;;;-145.69;53.12;52278.03;4906945;29;20228;-80
2023/12/26 02:47:04;;;;;;;4.20;1.30;;;;;;;-145.69;52.59;52278.03;4916666;29;20236;-80
2023/12/26 02:49:31;;;;;;;5.73;1.30;;;;;;;-145.69;52.28;52270.13;4916461;29;20204;-80
2023/12/26 02:51:57;;;;;;;3.07;1.30;;;;;;;-145.69;53.21;52268.13;4916713;29;20200;-81
2023/12/26 02:54:24;;;;;;;2.63;0.97;;;;;;;-145.69;52.86;52285.97;4916857;29;20208;-81
2023/12/26 02:56:50;;;;;;;2.40;1.03;;;;;;;-145.69;53.07;52262.19;4915442;29;20675;-80
2023/12/26 02:59:18;;;;;;;2.07;1.27;;;;;;;-145.69;53.12;52262.19;4913825;29;20287;-81
2023/12/26 03:01:45;;;;;;;4.67;1.50;;;;;;;-145.69;53.15;52272.09;4916143;29;20215;-79
2023/12/26 03:04:12;;;;;;;4.10;1.57;;;;;;;-145.69;52.72;52272.09;4916536;29;20322;-80
2023/12/26 03:06:39;;;;;;;1.17;1.07;;;;;;;-145.69;52.85;52276.06;4915298;29;20211;-80
2023/12/26 03:09:06;;;;;;;4.57;1.23;;;;;;;-145.69;52.84;52270.13;4916418;29;20303;-79
2023/12/26 03:11:32;;;;;;;1.40;1.30;;;;;;;-145.69;53.20;52297.84;4910975;29;20287;-79
2023/12/26 03:13:59;;;;;;;3.80;1.30;;;;;;;-145.69;53.59;52276.06;4897478;29;20217;-82
2023/12/26 03:16:27;;;;;;;3.83;1.27;;;;;;;-145.69;53.29;52303.78;4897671;29;20205;-82
2023/12/26 03:18:54;;;;;;;5.03;1.30;;;;;;;-145.69;53.79;52289.91;4897514;29;20201;-82
2023/12/26 03:21:20;;;;;;;5.53;1.30;;;;;;;-145.69;53.90;52301.81;4897701;29;20230;-81
2023/12/26 03:23:47;;;;;;;5.00;1.30;;;;;;;-145.69;54.29;52250.31;4897828;29;20229;-82
2023/12/26 03:26:13;;;;;;;2.43;1.30;;;;;;;-145.69;54.49;52285.97;4914572;29;20208;-81
2023/12/26 03:28:40;;;;;;;3.03;1.20;;;;;;;-145.69;54.66;52285.97;4915895;29;20215;-81
2023/12/26 03:31:07;;;;;;;1.73;1.10;;;;;;;-145.69;55.32;52341.41;4916742;29;20267;-81
2023/12/26 03:33:36;;;;;;;2.13;1.33;;;;;;;-145.69;55.11;52285.97;4916193;29;20204;-81
2023/12/26 03:36:04;;;;;;;3.67;1.23;;;;;;;-145.69;54.68;52285.97;4915951;29;20211;-81
2023/12/26 03:38:31;;;;;;;3.90;1.20;;;;;;;-145.69;55.26;52297.84;4915974;29;20204;-82
2023/12/26 03:41:01;;;;;;;5.20;1.83;;;;;;;-145.69;55.12;52282.00;4916417;29;20259;-81
2023/12/26 03:43:27;;;;;;;5.53;1.43;;;;;;;-145.69;56.12;52283.97;4916080;29;20196;-81
2023/12/26 03:45:54;;;;;;;2.43;1.20;;;;;;;-145.69;55.32;52293.88;4916013;29;20541;-81
2023/12/26 03:48:20;;;;;;;1.60;1.23;;;;;;;-145.69;55.39;52297.84;4917055;29;20290;-81
2023/12/26 03:50:48;;;;;;;2.10;1.20;;;;;;;-145.69;55.20;52305.75;4919876;29;20625;-81
2023/12/26 03:53:15;;;;;;;2.70;1.33;;;;;;;-145.69;55.67;52258.22;4918894;29;20239;-82
2023/12/26 03:55:41;;;;;;;3.30;1.50;;;;;;;-145.69;55.33;52297.84;4919418;29;20212;-81
2023/12/26 03:58:08;;;;;;;1.67;1.13;;;;;;;-145.69;55.74;52295.84;4903579;29;20664;-80
2023/12/26 04:00:35;;;;;;;2.33;1.50;;;;;;;-145.69;55.62;52317.66;4916869;29;20212;-81
2023/12/26 04:03:01;;;;;;;3.17;1.20;;;;;;;-145.69;56.09;52289.91;4919118;29;20671;-82
2023/12/26 04:05:28;;;;;;;2.63;1.27;;;;;;;-145.69;55.97;52297.84;4919720;29;20232;-81
2023/12/26 04:07:56;;;;;;;3.53;1.40;;;;;;;-145.69;56.17;52282.00;4919386;29;20204;-81
2023/12/26 04:10:22;;;;;;;4.83;1.73;;;;;;;-145.69;56.62;52248.34;4919280;29;20236;-81
2023/12/26 04:12:49;;;;;;;2.00;1.30;;;;;;;-145.69;56.61;52266.16;4918702;29;20204;-81
2023/12/26 04:15:15;;;;;;;1.80;1.13;;;;;;;-145.69;56.67;52276.06;4919694;29;20779;-81
2023/12/26 04:17:42;;;;;;;2.63;1.23;;;;;;;-145.69;56.39;52299.81;4919436;29;20288;-81
2023/12/26 04:20:09;;;;;;;2.97;1.23;;;;;;;-145.69;56.63;52293.88;4919489;29;20204;-81
2023/12/26 04:22:36;;;;;;;3.30;1.27;;;;;;;-145.69;56.67;52262.19;4919408;29;20208;-81
2023/12/26 04:25:05;;;;;;;7.47;1.30;;;;;;;-145.69;56.43;52276.06;4919175;29;20718;-80
2023/12/26 04:27:31;;;;;;;2.27;1.13;;;;;;;-145.69;56.22;52282.00;4918715;29;20204;-81
2023/12/26 04:30:01;;;;;;;6.23;1.20;;;;;;;-145.69;56.75;52297.84;4919075;29;20243;-81
2023/12/26 04:32:27;;;;;;;1.97;1.10;;;;;;;-145.69;56.72;52301.81;4918985;29;20208;-81
2023/12/26 04:34:54;;;;;;;2.57;1.10;;;;;;;-145.69;56.92;52272.09;4907780;29;20196;-80
2023/12/26 04:37:21;;;;;;;2.10;1.10;;;;;;;-145.69;57.04;52311.69;4918945;29;20215;-81
2023/12/26 04:39:47;;;;;;;2.43;1.30;;;;;;;-145.69;57.05;52309.72;4919207;29;20313;-81
2023/12/26 04:42:15;;;;;;;2.63;1.30;;;;;;;-145.69;56.93;52297.84;4918597;29;20196;-82
2023/12/26 04:44:42;;;;;;;5.63;1.20;;;;;;;-145.69;57.26;52297.84;4919199;29;20593;-80
2023/12/26 04:47:08;;;;;;;4.80;1.40;;;;;;;-145.69;57.35;52270.13;4918909;29;20218;-80
2023/12/26 04:49:35;;;;;;;2.50;1.30;;;;;;;-145.69;56.81;52297.84;4919052;29;20204;-81
2023/12/26 04:52:01;;;;;;;4.77;1.60;;;;;;;-145.69;56.86;52254.28;4918725;29;20244;-81
2023/12/26 04:54:28;;;;;;;1.73;1.23;;;;;;;-145.69;56.87;52276.06;4918960;29;20204;-81
2023/12/26 04:56:54;;;;;;;2.63;1.20;;;;;;;-145.69;57.40;52274.06;4918626;29;20210;-81
2023/12/26 04:59:22;;;;;;;2.57;1.20;;;;;;;-145.69;57.39;52283.97;4918292;29;20211;-81
2023/12/26 05:01:49;;;;;;;2.17;0.90;;;;;;;-145.69;56.76;52278.03;4914932;29;20204;-81
2023/12/26 05:04:15;;;;;;;2.23;1.40;;;;;;;-145.69;57.03;52278.03;4917803;29;20684;-81
2023/12/26 05:06:42;;;;;;;1.90;1.20;;;;;;;-145.69;57.02;52282.00;4918586;29;20211;-81
2023/12/26 05:09:08;;;;;;;8.43;1.50;;;;;;;-145.69;57.97;52315.66;4917358;29;20454;-81
2023/12/26 05:11:35;;;;;;;3.77;1.23;;;;;;;-145.69;57.09;52301.81;4918437;29;20256;-81
2023/12/26 05:14:01;;;;;;;2.10;1.30;;;;;;;-145.69;57.35;52270.13;4918150;29;20597;-81
2023/12/26 05:16:30;;;;;;;2.67;1.43;;;;;;;-145.69;56.92;52280.00;4917308;29;20604;-81
2023/12/26 05:18:56;;;;;;;3.20;1.37;;;;;;;-145.69;56.62;52309.72;4918318;29;20564;-81
2023/12/26 05:21:24;;;;;;;3.40;1.30;;;;;;;-145.69;56.78;52307.75;4918112;29;20211;-81
2023/12/26 05:23:51;;;;;;;2.67;1.30;;;;;;;-145.69;56.32;52274.06;4917931;29;20736;-81
2023/12/26 05:26:17;;;;;;;2.90;1.60;;;;;;;-145.69;56.44;52285.97;4918144;29;20326;-81
2023/12/26 05:28:44;;;;;;;3.17;2.10;;;;;;;-145.69;56.45;52272.09;4909723;29;20204;-80
2023/12/26 05:31:10;;;;;;;1.47;1.10;;;;;;;-145.69;56.30;52285.97;4917666;29;20697;-81
2023/12/26 05:33:38;;;;;;;5.67;1.20;;;;;;;-145.69;56.06;52266.16;4918090;29;20263;-81
2023/12/26 05:36:05;;;;;;;5.33;1.53;;;;;;;-145.69;56.06;52256.25;4917460;29;20215;-81
2023/12/26 05:38:32;;;;;;;3.10;1.27;;;;;;;-145.69;55.82;52262.19;4917755;29;20230;-81
2023/12/26 05:40:59;;;;;;;7.57;1.87;;;;;;;-145.69;56.08;52299.81;4917980;29;20707;-81
2023/12/26 05:43:25;;;;;;;2.17;1.30;;;;;;;-145.69;55.57;52274.06;4917207;29;20275;-81
2023/12/26 05:45:52;;;;;;;3.90;1.13;;;;;;;-145.69;55.66;52276.06;4916629;29;20235;-81
2023/12/26 05:48:18;;;;;;;3.80;1.53;;;;;;;-145.69;55.57;52258.22;4917565;29;20624;-81
2023/12/26 05:50:46;;;;;;;7.37;1.57;;;;;;;-145.69;54.89;52276.06;4917106;29;20220;-81
2023/12/26 05:53:12;;;;;;;2.80;1.30;;;;;;;-145.69;55.31;52299.81;4917216;29;20219;-81
2023/12/26 05:55:39;;;;;;;8.10;1.20;;;;;;;-145.69;55.44;52234.47;4917631;29;20230;-81
2023/12/26 05:58:05;;;;;;;1.03;1.00;;;;;;;-145.69;54.89;52297.84;4916502;29;20616;-81
2023/12/26 06:00:32;;;;;;;2.27;1.43;;;;;;;-145.69;54.81;52268.13;4916696;29;20206;-81
2023/12/26 06:02:58;;;;;;;3.70;1.50;;;;;;;-145.69;55.11;52264.16;4917467;29;20208;-81
2023/12/26 06:05:25;;;;;;;3.23;1.53;;;;;;;-145.69;54.89;52258.22;4917292;29;20243;-81
2023/12/26 06:07:53;;;;;;;2.53;1.27;;;;;;;-145.69;55.27;52252.28;4917413;29;20247;-81
2023/12/26 06:10:19;;;;;;;8.50;1.70;;;;;;;-145.69;55.33;52272.09;4917459;29;20301;-81
2023/12/26 06:12:45;;;;;;;2.63;1.30;;;;;;;-145.69;55.01;52254.28;4912945;29;20211;-80
2023/12/26 06:15:12;;;;;;;2.40;1.27;;;;;;;-145.69;55.24;52285.97;4898317;29;20208;-81
2023/12/26 06:17:39;;;;;;;7.23;1.60;;;;;;;-145.69;54.98;52264.16;4898227;29;20213;-81
2023/12/26 06:20:09;;;;;;;5.57;1.77;;;;;;;-145.69;54.72;52234.47;4898513;29;20209;-81
2023/12/26 06:22:36;;;;;;;4.60;1.37;;;;;;;-145.69;54.23;52293.88;4898425;29;20614;-81
2023/12/26 06:25:05;;;;;;;4.63;1.33;;;;;;;-145.69;53.98;52283.97;4900234;29;20696;-81
2023/12/26 06:27:32;;;;;;;2.63;1.30;;;;;;;-145.69;54.15;52250.31;4916594;29;20216;-80
2023/12/26 06:29:59;;;;;;;3.60;1.40;;;;;;;-145.69;54.58;52238.44;4915372;29;20288;-81
2023/12/26 06:32:25;;;;;;;1.60;1.30;;;;;;;-145.69;54.28;52293.88;4917226;29;20220;-81
2023/12/26 06:34:52;;;;;;;4.47;1.80;;;;;;;-145.69;54.48;52293.88;4917184;29;20204;-81
2023/12/26 06:37:18;;;;;;;5.10;1.47;;;;;;;-145.69;54.13;52282.00;4917159;29;20211;-81
2023/12/26 06:39:44;;;;;;;3.83;1.80;;;;;;;-145.69;54.83;52230.50;4916939;29;20205;-81
2023/12/26 06:42:12;;;;;;;2.80;1.47;;;;;;;-145.69;54.71;52276.06;4916788;29;20663;-81
2023/12/26 06:44:40;;;;;;;6.70;1.37;;;;;;;-145.69;54.54;52297.84;4916535;29;20667;-81
2023/12/26 06:47:06;;;;;;;6.03;1.20;;;;;;;-145.69;54.52;52268.13;4916400;29;20212;-81
2023/12/26 06:49:33;;;;;;;5.83;1.27;;;;;;;-145.69;54.33;52268.13;4916950;29;20264;-81
2023/12/26 06:52:00;;;;;;;1.73;1.17;;;;;;;-145.69;54.40;52256.25;4916840;29;20204;-81
2023/12/26 06:54:26;;;;;;;2.57;1.50;;;;;;;-145.69;54.47;52248.34;4913616;29;20216;-81
2023/12/26 06:56:52;;;;;;;3.97;1.40;;;;;;;-145.69;54.57;52258.22;4916523;29;20648;-80
2023/12/26 06:59:20;;;;;;;2.40;1.40;;;;;;;-145.69;54.49;52289.91;4916262;29;20212;-81
2023/12/26 07:01:47;;;;;;;4.90;1.73;;;;;;;-145.69;54.59;52266.16;4916796;29;20260;-81
2023/12/26 07:04:13;;;;;;;1.53;1.40;;;;;;;-145.69;54.64;52278.03;4916393;29;20232;-81
2023/12/26 07:06:40;;;;;;;6.80;1.40;;;;;;;-145.69;54.85;52258.22;4916755;29;20235;-81
2023/12/26 07:09:06;;;;;;;3.97;1.50;;;;;;;-145.69;55.85;52248.34;4916290;29;20211;-81
2023/12/26 07:11:33;;;;;;;2.87;1.50;;;;;;;-145.69;55.92;52244.38;4916639;29;20208;-81
2023/12/26 07:13:59;;;;;;;6.77;1.40;;;;;;;-145.69;55.57;52242.38;4916089;29;20227;-81
2023/12/26 07:16:27;;;;;;;10.03;1.60;;;;;;;-145.69;55.61;52274.06;4916167;29;20212;-80
2023/12/26 07:18:53;;;;;;;3.80;1.53;;;;;;;-145.69;55.79;52248.34;4916486;29;20675;-81
2023/12/26 07:21:20;;;;;;;3.40;1.33;;;;;;;-145.69;55.77;52291.91;4916258;29;20242;-81
2023/12/26 07:23:47;;;;;;;3.77;1.43;;;;;;;-145.69;55.85;52280.00;4916876;29;20202;-81
2023/12/26 07:26:13;;;;;;;4.27;1.97;;;;;;;-145.69;55.89;52262.19;4919680;29;20587;-82
2023/12/26 07:28:40;;;;;;;2.27;1.50;;;;;;;-145.69;55.86;52268.13;4919641;29;20211;-81
2023/12/26 07:31:07;;;;;;;6.43;1.70;;;;;;;-145.69;55.62;52309.72;4919869;29;20670;-81
2023/12/26 07:33:34;;;;;;;2.37;1.20;;;;;;;-145.69;55.87;52289.91;4919212;29;20200;-81
2023/12/26 07:36:01;;;;;;;6.07;1.63;;;;;;;-145.69;56.32;52254.28;4919659;29;20259;-80
2023/12/26 07:38:27;;;;;;;5.83;1.53;;;;;;;-145.69;55.98;52282.00;4919745;29;20208;-82
2023/12/26 07:40:54;;;;;;;2.90;1.77;;;;;;;-145.69;56.09;52234.47;4920056;29;20208;-81
2023/12/26 07:43:20;;;;;;;3.70;1.60;;;;;;;-145.69;55.59;52262.19;4919492;29;20211;-81
2023/12/26 07:45:47;;;;;;;5.80;1.73;;;;;;;-145.69;56.09;52232.50;4919636;29;20315;-82
2023/12/26 07:48:13;;;;;;;2.03;1.40;;;;;;;-145.69;55.54;52282.00;4917038;29;20279;-82
2023/12/26 07:50:41;;;;;;;4.27;1.57;;;;;;;-145.69;55.77;52240.41;4910682;29;20210;-81
2023/12/26 07:53:07;;;;;;;5.87;1.40;;;;;;;-145.69;55.33;52280.00;4917786;29;20204;-81
2023/12/26 07:55:34;;;;;;;4.83;1.90;;;;;;;-145.69;55.44;52282.00;4919832;29;20268;-81
2023/12/26 07:58:00;;;;;;;4.13;1.60;;;;;;;-145.69;55.16;52266.16;4919629;29;20200;-81
2023/12/26 08:00:27;;;;;;;6.00;1.60;;;;;;;-145.69;54.96;52262.19;4919602;29;20204;-81
2023/12/26 08:02:53;;;;;;;2.23;1.50;;;;;;;-145.69;55.00;52303.78;4918222;29;20212;-81
2023/12/26 08:05:20;;;;;;;5.03;1.30;;;;;;;-145.69;55.05;52305.75;4918395;29;20710;-81
2023/12/26 08:07:48;;;;;;;3.27;1.80;;;;;;;-145.69;55.59;52248.34;4919515;29;20292;-81
2023/12/26 08:10:15;;;;;;;8.70;1.73;;;;;;;-145.69;55.22;52262.19;4919697;29;20232;-81
2023/12/26 08:12:41;;;;;;;10.07;1.80;;;;;;;-145.69;55.06;52244.38;4918843;29;20281;-80
2023/12/26 08:15:09;;;;;;;6.13;2.00;;;;;;;-145.69;55.26;52262.19;4919156;29;20220;-80
2023/12/26 08:17:35;;;;;;;6.40;1.73;;;;;;;-145.69;55.00;52270.13;4918398;29;20732;-79
2023/12/26 08:20:03;;;;;;;3.53;1.40;;;;;;;-145.69;54.88;52260.22;4919489;29;20231;-80
2023/12/26 08:22:30;;;;;;;4.63;1.60;;;;;;;-145.69;55.42;52248.34;4919002;29;20796;-82
2023/12/26 08:24:57;;;;;;;6.33;2.00;;;;;;;-145.69;55.32;52256.25;4918539;29;20612;-82
2023/12/26 08:27:24;;;;;;;5.60;2.00;;;;;;;-145.69;54.48;52266.16;4918739;29;20196;-81
2023/12/26 08:29:50;;;;;;;4.87;1.87;;;;;;;-145.69;54.78;52246.34;4918998;29;20200;-81
2023/12/26 08:32:17;;;;;;;4.33;1.83;;;;;;;-145.69;54.79;52272.09;4918362;29;20215;-81
2023/12/26 08:34:44;;;;;;;6.60;1.73;;;;;;;-145.69;54.58;52280.00;4917839;29;20200;-80
2023/12/26 08:37:11;;;;;;;7.80;1.90;;;;;;;-145.69;54.11;52248.34;4918319;29;20211;-81
2023/12/26 08:39:37;;;;;;;3.43;1.83;;;;;;;-145.69;53.72;52291.91;4918788;29;20264;-81
2023/12/26 08:42:05;;;;;;;8.47;3.07;;;;;;;-145.69;53.75;52283.97;4918467;29;20660;-81
2023/12/26 08:44:32;;;;;;;6.33;2.23;;;;;;;-145.69;54.18;52250.31;4918667;29;20259;-81
2023/12/26 08:47:03;;;;;;;12.50;3.27;;;;;;;-145.69;53.25;52266.16;4918341;29;20283;-82
2023/12/26 08:49:29;;;;;;;8.20;2.90;;;;;;;-145.69;52.54;52291.91;4918625;29;20240;-81
2023/12/26 08:51:56;;;;;;;2.73;2.03;;;;;;;-145.69;53.07;52297.84;4918350;29;20200;-81
2023/12/26 08:54:22;;;;;;;10.10;2.90;;;;;;;-145.69;53.38;52268.13;4918439;29;20668;-81
2023/12/26 08:56:49;;;;;;;12.70;3.13;;;;;;;-145.69;53.44;52272.09;4916879;29;20200;-81
2023/12/26 08:59:18;;;;;;;12.57;3.63;;;;;;;-145.69;52.87;52240.41;4918166;29;20196;-81
2023/12/26 09:01:45;;;;;;;5.83;2.43;;;;;;;-145.69;52.84;52250.31;4918222;29;20200;-81
2023/12/26 09:04:12;;;;;;;3.50;1.43;;;;;;;-145.69;52.67;52258.22;4918053;29;20688;-82
2023/12/26 09:06:38;;;;;;;5.43;1.80;;;;;;;-145.69;52.48;52282.00;4915739;29;20830;-81
2023/12/26 09:09:04;;;;;;;3.90;1.87;;;;;;;-145.69;52.34;52278.03;4917815;29;20208;-81
2023/12/26 09:11:31;;;;;;;7.67;1.83;;;;;;;-145.69;52.69;52230.50;4918629;29;20215;-82
2023/12/26 09:13:58;;;;;;;7.27;1.77;;;;;;;-145.69;52.34;52250.31;4918513;29;20556;-82
2023/12/26 09:16:26;;;;;;;6.67;1.60;;;;;;;-145.69;51.91;52258.22;4917720;29;20664;-82
2023/12/26 09:18:52;;;;;;;7.83;2.20;;;;;;;-145.69;51.74;52230.50;4917681;29;20334;-81
2023/12/26 09:21:18;;;;;;;8.17;1.70;;;;;;;-145.69;51.37;52220.59;4918273;29;20204;-81
2023/12/26 09:23:45;;;;;;;6.83;1.80;;;;;;;-145.69;51.44;52230.50;4917788;29;20267;-81
2023/12/26 09:26:12;;;;;;;4.97;1.90;;;;;;;-145.69;51.07;52240.41;4918068;29;20318;-81
2023/12/26 09:28:39;;;;;;;4.03;1.43;;;;;;;-145.69;50.58;52268.13;4918217;29;20208;-81
2023/12/26 09:31:06;;;;;;;4.83;1.60;;;;;;;-145.69;50.74;52218.63;4917335;29;20255;-81
2023/12/26 09:33:33;;;;;;;5.37;1.77;;;;;;;-145.69;50.62;52212.69;4917808;29;20570;-81
2023/12/26 09:36:00;;;;;;;6.73;1.80;;;;;;;-145.69;49.99;52210.72;4917878;29;20208;-81
2023/12/26 09:38:26;;;;;;;5.40;1.30;;;;;;;-145.69;49.67;52268.13;4917693;29;20204;-81
2023/12/26 09:40:53;;;;;;;3.53;1.40;;;;;;;-145.69;50.22;52250.31;4917728;29;20267;-81
2023/12/26 09:43:20;;;;;;;3.20;1.50;;;;;;;-145.69;49.54;52240.41;4917120;29;20196;-81
2023/12/26 09:45:46;;;;;;;8.53;2.23;;;;;;;-145.69;49.99;52222.59;4916661;29;20235;-81
2023/12/26 09:48:13;;;;;;;4.37;1.70;;;;;;;-145.69;49.31;52214.66;4917448;29;20216;-80
2023/12/26 09:50:41;;;;;;;5.20;1.40;;;;;;;-145.69;49.55;52250.31;4917163;29;20567;-81
2023/12/26 09:53:08;;;;;;;3.43;1.30;;;;;;;-145.69;49.14;52228.53;4917657;29;20199;-81
2023/12/26 09:55:35;;;;;;;5.50;1.83;;;;;;;-145.69;49.03;52260.22;4914015;29;20215;-80
2023/12/26 09:58:02;;;;;;;8.17;2.47;;;;;;;-145.69;48.61;52230.50;4917220;29;20564;-80
2023/12/26 10:00:30;;;;;;;8.47;2.37;;;;;;;-145.69;48.67;52210.72;4916533;29;20231;-80
2023/12/26 10:02:57;;;;;;;6.77;1.60;;;;;;;-145.69;48.40;52256.25;4917130;29;20204;-81
2023/12/26 10:05:24;;;;;;;6.00;2.10;;;;;;;-145.69;48.37;52242.38;4917177;29;20215;-81
2023/12/26 10:07:51;;;;;;;7.77;1.97;;;;;;;-145.69;47.98;52218.63;4917209;29;20223;-81
2023/12/26 10:10:20;;;;;;;3.73;1.50;;;;;;;-145.69;48.23;52238.44;4916945;29;20228;-81
2023/12/26 10:12:47;;;;;;;5.17;1.50;;;;;;;-145.69;48.59;52236.44;4916911;29;20659;-81
2023/12/26 10:15:13;;;;;;;3.23;1.40;;;;;;;-145.69;47.80;52232.50;4915846;29;20197;-81
2023/12/26 10:17:41;;;;;;;5.60;1.87;;;;;;;-145.69;47.89;52222.59;4917008;29;20576;-81
2023/12/26 10:20:09;;;;;;;5.67;2.00;;;;;;;-145.69;47.35;52216.66;4904746;29;20219;-81
2023/12/26 10:22:35;;;;;;;2.23;1.23;;;;;;;-145.69;47.48;52190.91;4916337;29;20660;-81
2023/12/26 10:25:04;;;;;;;7.83;1.70;;;;;;;-145.69;47.71;52226.53;4916913;29;20200;-81
2023/12/26 10:27:30;;;;;;;10.77;1.70;;;;;;;-145.69;47.55;52212.69;4916763;29;20228;-81
2023/12/26 10:29:57;;;;;;;6.20;1.83;;;;;;;-145.69;46.99;52214.66;4916734;29;20248;-82
2023/12/26 10:32:25;;;;;;;4.03;1.70;;;;;;;-145.69;46.98;52238.44;4916674;29;20251;-81
2023/12/26 10:34:52;;;;;;;2.97;1.47;;;;;;;-145.69;46.69;52226.53;4916869;29;20215;-81
2023/12/26 10:37:21;;;;;;;4.50;1.30;;;;;;;-145.69;46.71;52202.78;4916522;29;20196;-80
2023/12/26 10:39:47;;;;;;;6.28;1.55;;;;;;;-145.69;46.43;52190.91;4916379;29;20259;-81
2023/12/26 10:42:17;;;;;;;4.00;1.30;;;;;;;-145.69;46.03;52218.63;4916812;29;20214;-80
2023/12/26 10:44:46;;;;;;;3.30;1.50;;;;;;;-145.69;46.11;52220.59;4915920;29;20231;-80
2023/12/26 10:47:13;;;;;;;3.70;1.60;;;;;;;-145.69;46.60;52218.63;4915966;29;20239;-80
2023/12/26 10:49:45;;;;;;;3.53;1.33;;;;;;;-145.69;46.10;52175.06;4916180;29;20211;-80
2023/12/26 10:52:16;;;;;;;4.97;1.80;;;;;;;-145.69;45.91;52186.94;4916227;29;20200;-81
2023/12/26 10:54:45;;;;;;;5.32;1.45;;;;;;;-145.69;45.84;52212.69;4916085;29;20327;-81
2023/12/26 10:57:13;;;;;;;5.18;1.65;;;;;;;-145.69;45.42;52202.78;4916841;29;20201;-81
2023/12/26 10:59:41;;;;;;;3.25;1.52;;;;;;;-145.69;45.42;52222.59;4915726;29;20200;-81
2023/12/26 11:02:07;;;;;;;8.52;1.50;;;;;;;-145.69;45.71;52182.97;4914972;29;20205;-81
2023/12/26 11:04:33;;;;;;;10.97;2.80;;;;;;;-145.69;46.44;52226.53;4913198;29;20605;-81
2023/12/26 11:07:00;;;;;;;7.30;1.73;;;;;;;-145.69;46.73;52202.78;4916520;29;20228;-81
2023/12/26 11:09:25;;;;;;;9.03;2.17;;;;;;;-145.69;46.22;52226.53;4915558;29;20232;-80
2023/12/26 11:11:51;;;;;;;7.22;2.15;;;;;;;-145.69;46.00;52194.88;4916926;29;20211;-81
2023/12/26 11:14:18;;;;;;;5.95;1.88;;;;;;;-145.69;46.14;52214.66;4915186;29;20211;-81
2023/12/26 11:16:44;;;;;;;5.10;1.80;;;;;;;-145.69;46.48;52194.88;4916056;29;20204;-81